Time;durP1;ratioP1;P1;durP2;ratioP2;P2;SDS_P1;SDS_P2;PMS_P1;PMS_P2;Temp;Humidity;BMP_temperature;BMP_pressure;BME280_temperature;BME280_humidity;BME280_pressure;Samples;Min_cycle;Max_cycle;Signal;HPM_P1;HPM_P2
2021/08/29 00:00:59;;;;;;;0.30;0.30;;;13.30;99.90;;;;;;5056077;28;20261;-68
2021/08/29 00:03:26;;;;;;;0.30;0.30;;;13.20;99.90;;;;;;5056155;28;20608;-69
2021/08/29 00:05:52;;;;;;;0.30;0.30;;;13.20;99.90;;;;;;5056421;28;20560;-67
2021/08/29 00:08:19;;;;;;;0.30;0.30;;;13.10;99.90;;;;;;5056572;28;20471;-68
2021/08/29 00:10:44;;;;;;;0.30;0.30;;;13.10;99.90;;;;;;5055947;28;20416;-68
2021/08/29 00:13:10;;;;;;;0.50;0.50;;;13.00;99.90;;;;;;5056341;28;20182;-68
2021/08/29 00:15:38;;;;;;;0.30;0.30;;;13.00;99.90;;;;;;5056538;28;20451;-68
2021/08/29 00:18:04;;;;;;;0.30;0.30;;;13.00;99.90;;;;;;5055902;28;20965;-69
2021/08/29 00:20:29;;;;;;;0.30;0.30;;;13.00;99.90;;;;;;5055573;28;20494;-68
2021/08/29 00:22:55;;;;;;;0.30;0.30;;;13.00;99.90;;;;;;5056064;28;20440;-68
2021/08/29 00:25:21;;;;;;;0.30;0.30;;;13.10;99.90;;;;;;5056087;28;20209;-69
2021/08/29 00:27:46;;;;;;;0.40;0.40;;;13.20;99.90;;;;;;5055882;28;20193;-68
2021/08/29 00:30:13;;;;;;;0.30;0.30;;;13.30;99.90;;;;;;5055603;28;20238;-67
2021/08/29 00:32:40;;;;;;;0.30;0.30;;;13.30;99.90;;;;;;5055708;28;20209;-67
2021/08/29 00:35:06;;;;;;;0.30;0.30;;;13.40;99.90;;;;;;5055775;28;20439;-67
2021/08/29 00:37:32;;;;;;;0.30;0.30;;;13.40;99.90;;;;;;5055645;28;20462;-67
2021/08/29 00:39:59;;;;;;;0.30;0.30;;;13.40;99.90;;;;;;5055636;28;20397;-69
2021/08/29 00:42:25;;;;;;;0.30;0.30;;;13.40;99.90;;;;;;5055805;28;20252;-66
2021/08/29 00:44:51;;;;;;;0.30;0.30;;;13.40;99.90;;;;;;5055731;28;20433;-67
2021/08/29 00:47:16;;;;;;;0.30;0.30;;;13.30;99.90;;;;;;5055212;28;20194;-66
2021/08/29 00:49:42;;;;;;;0.30;0.30;;;13.20;99.90;;;;;;5055438;28;20397;-67
2021/08/29 00:52:10;;;;;;;0.30;0.30;;;13.20;99.90;;;;;;5055278;28;20594;-69
2021/08/29 00:54:37;;;;;;;0.30;0.30;;;13.10;99.90;;;;;;5055557;28;20220;-68
2021/08/29 00:57:13;;;;;;;0.30;0.30;;;13.10;99.90;;;;;;5055119;28;20879;-68
2021/08/29 00:59:42;;;;;;;0.30;0.30;;;13.10;99.90;;;;;;5055058;28;20432;-70
2021/08/29 01:02:13;;;;;;;0.40;0.40;;;13.20;99.90;;;;;;5055001;28;20412;-68
2021/08/29 01:04:49;;;;;;;1.27;1.17;;;13.10;99.90;;;;;;5055282;28;20454;-66
2021/08/29 01:07:22;;;;;;;0.30;0.30;;;13.10;99.90;;;;;;5055445;28;20451;-69
2021/08/29 01:09:53;;;;;;;0.30;0.30;;;13.00;99.90;;;;;;5054835;28;20458;-67
2021/08/29 01:12:22;;;;;;;0.30;0.30;;;12.90;99.90;;;;;;5054738;28;20531;-68
2021/08/29 01:14:51;;;;;;;0.30;0.30;;;13.00;99.90;;;;;;5054984;28;20779;-67
2021/08/29 01:17:19;;;;;;;0.30;0.30;;;13.00;99.90;;;;;;5055132;28;20435;-69
2021/08/29 01:20:25;;;;;;;0.30;0.30;;;12.90;99.90;;;;;;5055093;28;20947;-69
2021/08/29 01:22:52;;;;;;;0.30;0.30;;;12.90;99.90;;;;;;5021328;28;20427;-68
2021/08/29 01:25:27;;;;;;;0.30;0.30;;;12.90;99.90;;;;;;5054774;28;20445;-69
2021/08/29 01:28:10;;;;;;;0.30;0.30;;;12.90;99.90;;;;;;5054829;28;20439;-66
2021/08/29 01:30:36;;;;;;;0.30;0.30;;;12.90;99.90;;;;;;5054541;28;20760;-69
2021/08/29 01:33:02;;;;;;;0.30;0.30;;;12.90;99.90;;;;;;5054413;28;20404;-67
2021/08/29 01:35:28;;;;;;;0.30;0.30;;;13.00;99.90;;;;;;5054702;28;20401;-68
2021/08/29 01:37:54;;;;;;;0.30;0.30;;;13.00;99.90;;;;;;5054668;28;20424;-69
2021/08/29 01:40:21;;;;;;;0.30;0.30;;;13.00;99.90;;;;;;5054486;28;20436;-67
2021/08/29 01:42:47;;;;;;;0.30;0.30;;;13.00;99.90;;;;;;5053944;28;20504;-67
2021/08/29 01:45:15;;;;;;;0.30;0.30;;;13.00;99.90;;;;;;5054382;28;20503;-69
2021/08/29 01:47:40;;;;;;;0.30;0.30;;;12.80;99.90;;;;;;5054143;28;20490;-68
2021/08/29 01:50:07;;;;;;;0.30;0.30;;;12.80;99.90;;;;;;5054202;28;20753;-67
2021/08/29 01:52:33;;;;;;;0.30;0.30;;;12.70;99.90;;;;;;5054105;28;20248;-68
2021/08/29 01:54:58;;;;;;;0.30;0.30;;;12.60;99.90;;;;;;5054421;28;20480;-67
2021/08/29 01:57:24;;;;;;;0.30;0.30;;;12.60;99.90;;;;;;5053990;28;20528;-69
2021/08/29 01:59:50;;;;;;;0.30;0.30;;;12.70;99.90;;;;;;5054635;28;20177;-66
2021/08/29 02:02:16;;;;;;;0.30;0.30;;;12.70;99.90;;;;;;5053788;28;20405;-67
2021/08/29 02:04:44;;;;;;;0.30;0.30;;;12.70;99.90;;;;;;5054029;28;20588;-68
2021/08/29 02:07:27;;;;;;;0.30;0.30;;;12.80;99.90;;;;;;5054088;28;20439;-67
2021/08/29 02:09:59;;;;;;;0.30;0.30;;;12.80;99.90;;;;;;5054308;28;20174;-69
2021/08/29 02:12:30;;;;;;;0.30;0.30;;;12.70;99.90;;;;;;5053416;28;20232;-69
2021/08/29 02:15:00;;;;;;;0.40;0.40;;;12.70;99.90;;;;;;5053941;28;20178;-69
2021/08/29 02:17:28;;;;;;;0.30;0.30;;;12.50;99.90;;;;;;5053926;28;20452;-69
2021/08/29 02:19:55;;;;;;;2.10;2.00;;;12.50;99.90;;;;;;5053816;28;20193;-68
2021/08/29 02:22:22;;;;;;;0.30;0.30;;;12.40;99.90;;;;;;5053928;28;20794;-67
2021/08/29 02:24:47;;;;;;;0.30;0.30;;;12.40;99.90;;;;;;5054065;28;20878;-68
2021/08/29 02:27:17;;;;;;;0.30;0.30;;;12.40;99.90;;;;;;5053534;28;20448;-68
2021/08/29 02:29:44;;;;;;;0.30;0.30;;;12.40;99.90;;;;;;5053987;28;20385;-68
2021/08/29 02:32:13;;;;;;;0.30;0.30;;;12.40;99.90;;;;;;5053508;28;20444;-67
2021/08/29 02:34:39;;;;;;;0.30;0.30;;;12.40;99.90;;;;;;5053544;28;20745;-68
2021/08/29 02:37:08;;;;;;;0.30;0.30;;;12.50;99.90;;;;;;5053976;28;20427;-69
2021/08/29 02:39:36;;;;;;;0.30;0.30;;;12.50;99.90;;;;;;5053962;28;20730;-69
2021/08/29 02:42:04;;;;;;;0.30;0.30;;;12.60;99.90;;;;;;5053258;28;20413;-67
2021/08/29 02:44:30;;;;;;;0.30;0.30;;;12.70;99.90;;;;;;5053656;28;20504;-67
2021/08/29 02:46:57;;;;;;;1.87;1.80;;;12.80;99.90;;;;;;5053203;28;20519;-67
2021/08/29 02:49:24;;;;;;;0.30;0.30;;;12.80;99.90;;;;;;5053762;28;20491;-69
2021/08/29 02:51:51;;;;;;;0.30;0.30;;;12.80;99.90;;;;;;5052984;28;20518;-69
2021/08/29 02:54:19;;;;;;;0.30;0.30;;;12.90;99.90;;;;;;5058307;28;20755;-69
2021/08/29 02:56:47;;;;;;;0.30;0.30;;;12.90;99.90;;;;;;5060136;28;20427;-68
2021/08/29 02:59:14;;;;;;;0.30;0.30;;;12.90;99.90;;;;;;5060063;28;20401;-69
2021/08/29 03:01:40;;;;;;;0.30;0.30;;;12.90;99.90;;;;;;5059799;28;20420;-68
2021/08/29 03:04:06;;;;;;;0.40;0.40;;;12.90;99.90;;;;;;5060122;28;20443;-69
2021/08/29 03:06:32;;;;;;;0.30;0.30;;;12.90;99.90;;;;;;5060014;28;20667;-67
2021/08/29 03:08:58;;;;;;;0.30;0.30;;;12.90;99.90;;;;;;5059740;28;20436;-69
2021/08/29 03:11:24;;;;;;;0.30;0.30;;;13.00;99.90;;;;;;5059905;28;20487;-66
2021/08/29 03:13:53;;;;;;;0.30;0.30;;;13.00;99.90;;;;;;5059985;28;20166;-67
2021/08/29 03:16:18;;;;;;;0.30;0.30;;;12.90;99.90;;;;;;5059906;28;20428;-66
2021/08/29 03:18:45;;;;;;;0.40;0.40;;;12.90;99.90;;;;;;5059714;28;20181;-67
2021/08/29 03:21:11;;;;;;;0.30;0.30;;;12.70;99.90;;;;;;5059442;28;20185;-69
2021/08/29 03:23:36;;;;;;;0.30;0.30;;;12.70;99.90;;;;;;5059509;28;20174;-67
2021/08/29 03:26:02;;;;;;;0.30;0.30;;;12.60;99.90;;;;;;5059789;28;20404;-69
2021/08/29 03:28:28;;;;;;;0.30;0.30;;;12.60;99.90;;;;;;5060058;28;20412;-67
2021/08/29 03:30:54;;;;;;;0.30;0.30;;;12.50;99.90;;;;;;5059430;28;20463;-67
2021/08/29 03:33:22;;;;;;;0.30;0.30;;;12.50;99.90;;;;;;5060195;28;20245;-66
2021/08/29 03:35:50;;;;;;;0.30;0.30;;;12.50;99.90;;;;;;5060129;28;20257;-67
2021/08/29 03:38:18;;;;;;;0.30;0.30;;;12.40;99.90;;;;;;5059469;28;20244;-69
2021/08/29 03:40:45;;;;;;;0.30;0.30;;;12.30;99.90;;;;;;5059477;28;20174;-67
2021/08/29 03:43:14;;;;;;;0.30;0.30;;;12.30;99.90;;;;;;5060066;28;20407;-69
2021/08/29 03:45:40;;;;;;;0.30;0.30;;;12.40;99.90;;;;;;5060852;28;20485;-68
2021/08/29 03:48:08;;;;;;;0.30;0.30;;;12.40;99.90;;;;;;5059875;28;20486;-67
2021/08/29 03:50:34;;;;;;;0.30;0.30;;;12.50;99.90;;;;;;5060271;28;20876;-67
2021/08/29 03:53:01;;;;;;;0.30;0.30;;;12.50;99.90;;;;;;5059728;28;20404;-69
2021/08/29 03:55:28;;;;;;;0.30;0.30;;;12.60;99.90;;;;;;5058451;28;20757;-69
2021/08/29 03:57:57;;;;;;;0.30;0.30;;;12.60;99.90;;;;;;5058571;28;20911;-69
2021/08/29 04:00:24;;;;;;;0.47;0.47;;;12.60;99.90;;;;;;5058330;28;20170;-69
2021/08/29 04:02:50;;;;;;;0.40;0.40;;;12.70;99.90;;;;;;5059346;28;20404;-67
2021/08/29 04:05:16;;;;;;;0.30;0.30;;;12.80;99.90;;;;;;5056845;28;20413;-69
2021/08/29 04:07:43;;;;;;;0.30;0.30;;;12.80;99.90;;;;;;5055975;28;20815;-68
2021/08/29 04:10:10;;;;;;;0.30;0.30;;;12.80;99.90;;;;;;5055906;28;20808;-69
2021/08/29 04:12:40;;;;;;;2.30;2.20;;;12.90;99.90;;;;;;5055951;28;20664;-68
2021/08/29 04:15:06;;;;;;;0.30;0.30;;;12.90;99.90;;;;;;5056483;28;20431;-68
2021/08/29 04:17:33;;;;;;;0.30;0.30;;;12.90;99.90;;;;;;5055666;28;20428;-69
2021/08/29 04:20:00;;;;;;;0.30;0.30;;;13.00;99.90;;;;;;5055834;28;20492;-68
2021/08/29 04:22:26;;;;;;;0.30;0.30;;;13.00;99.90;;;;;;5055686;28;20400;-68
2021/08/29 04:24:52;;;;;;;0.30;0.30;;;13.00;99.90;;;;;;5055638;28;20408;-67
2021/08/29 04:27:18;;;;;;;0.30;0.30;;;13.00;99.90;;;;;;5055623;28;20492;-67
2021/08/29 04:29:44;;;;;;;0.30;0.30;;;13.10;99.90;;;;;;5055529;28;20416;-70
2021/08/29 04:32:11;;;;;;;0.30;0.30;;;13.10;99.90;;;;;;5055367;28;20463;-68
2021/08/29 04:34:38;;;;;;;0.30;0.30;;;13.10;99.90;;;;;;5055541;28;20393;-68
2021/08/29 04:37:06;;;;;;;0.30;0.30;;;13.10;99.90;;;;;;5054500;28;20424;-70
2021/08/29 04:39:36;;;;;;;0.30;0.30;;;13.00;99.90;;;;;;5055774;28;20397;-70
2021/08/29 04:42:02;;;;;;;0.30;0.30;;;13.00;99.90;;;;;;5055439;28;20424;-68
2021/08/29 04:44:27;;;;;;;0.30;0.30;;;13.00;99.90;;;;;;5055980;28;20911;-68
2021/08/29 04:46:53;;;;;;;0.30;0.30;;;13.00;99.90;;;;;;5055377;28;20483;-67
2021/08/29 04:49:19;;;;;;;0.30;0.30;;;13.00;99.90;;;;;;5055497;28;20519;-70
2021/08/29 04:51:44;;;;;;;0.30;0.30;;;12.90;99.90;;;;;;5055395;28;20200;-76
2021/08/29 04:54:10;;;;;;;0.30;0.30;;;12.70;99.90;;;;;;5054120;28;20264;-76
2021/08/29 04:56:35;;;;;;;0.30;0.30;;;12.80;99.90;;;;;;5055115;28;20190;-78
2021/08/29 04:59:01;;;;;;;0.30;0.30;;;13.20;99.90;;;;;;5055338;28;20200;-76
2021/08/29 05:01:30;;;;;;;0.40;0.40;;;13.70;99.90;;;;;;5055392;28;20181;-79
2021/08/29 05:03:56;;;;;;;0.30;0.30;;;14.20;99.90;;;;;;5055595;28;20180;-80
2021/08/29 05:06:22;;;;;;;0.30;0.30;;;14.70;99.90;;;;;;5055264;28;20435;-80
2021/08/29 05:08:49;;;;;;;0.30;0.30;;;15.10;99.90;;;;;;5055494;28;20405;-77
2021/08/29 05:11:15;;;;;;;0.30;0.30;;;15.50;99.90;;;;;;5054766;28;20792;-75
2021/08/29 05:13:40;;;;;;;0.30;0.30;;;15.80;99.90;;;;;;5054352;28;20185;-70
2021/08/29 05:16:07;;;;;;;0.30;0.30;;;16.10;99.20;;;;;;5054312;28;20249;-68
2021/08/29 05:18:33;;;;;;;0.30;0.30;;;16.10;96.80;;;;;;5054090;28;20163;-70
2021/08/29 05:20:58;;;;;;;0.30;0.30;;;15.90;96.80;;;;;;5054551;28;20507;-69
2021/08/29 05:23:24;;;;;;;0.30;0.30;;;15.60;97.20;;;;;;5054656;28;20408;-68
2021/08/29 05:25:50;;;;;;;0.30;0.30;;;15.30;97.60;;;;;;5054685;28;20561;-66
2021/08/29 05:28:16;;;;;;;0.40;0.40;;;15.00;97.90;;;;;;5053536;28;20273;-72
2021/08/29 05:43:01;;;;;;;0.30;0.30;;;14.30;99.90;;;;;;5054132;28;20447;-69
2021/08/29 05:45:27;;;;;;;0.30;0.30;;;14.10;99.90;;;;;;5054180;28;20952;-68
2021/08/29 05:47:53;;;;;;;0.30;0.30;;;14.10;99.90;;;;;;5053945;28;20426;-68
2021/08/29 05:50:18;;;;;;;0.30;0.30;;;14.10;99.90;;;;;;5054151;28;20179;-68
2021/08/29 05:52:44;;;;;;;0.30;0.30;;;14.20;99.90;;;;;;5053957;28;20218;-66
2021/08/29 05:55:10;;;;;;;0.30;0.30;;;14.20;99.90;;;;;;5053504;28;20213;-67
2021/08/29 05:57:35;;;;;;;0.30;0.30;;;14.20;99.90;;;;;;5053844;28;20261;-68
2021/08/29 06:00:01;;;;;;;0.30;0.30;;;14.20;99.90;;;;;;5052877;28;20180;-66
2021/08/29 06:02:26;;;;;;;0.30;0.30;;;14.20;99.90;;;;;;5053902;28;20187;-67
2021/08/29 06:04:52;;;;;;;0.30;0.30;;;14.10;99.90;;;;;;5053630;28;20412;-66
2021/08/29 06:07:18;;;;;;;0.30;0.30;;;14.10;99.90;;;;;;5053807;28;20219;-68
2021/08/29 06:09:43;;;;;;;0.30;0.30;;;14.10;99.90;;;;;;5053752;28;20180;-67
2021/08/29 06:12:09;;;;;;;0.30;0.30;;;14.10;99.90;;;;;;5054099;28;20197;-67
2021/08/29 06:14:34;;;;;;;0.30;0.30;;;14.10;99.90;;;;;;5054211;28;20278;-68
2021/08/29 06:17:00;;;;;;;0.30;0.30;;;14.20;99.90;;;;;;5053707;28;20181;-68
2021/08/29 06:19:26;;;;;;;0.30;0.30;;;14.30;99.90;;;;;;5053839;28;20170;-69
2021/08/29 06:21:51;;;;;;;0.30;0.30;;;14.30;99.90;;;;;;5053911;28;20261;-68
2021/08/29 06:24:17;;;;;;;0.30;0.30;;;14.50;99.90;;;;;;5053958;28;20218;-68
2021/08/29 06:26:43;;;;;;;0.30;0.30;;;14.60;99.90;;;;;;5053631;28;20177;-68
2021/08/29 06:29:09;;;;;;;0.37;0.37;;;14.70;99.90;;;;;;5053794;28;20231;-68
2021/08/29 06:31:35;;;;;;;0.30;0.30;;;14.60;99.90;;;;;;5054200;28;20288;-66
2021/08/29 06:34:00;;;;;;;0.70;0.70;;;14.70;99.90;;;;;;5053842;28;20460;-66
2021/08/29 06:36:26;;;;;;;0.30;0.30;;;14.80;99.90;;;;;;5053800;28;20577;-67
2021/08/29 06:38:52;;;;;;;0.30;0.30;;;14.80;99.90;;;;;;5053410;28;20173;-68
2021/08/29 06:41:17;;;;;;;0.30;0.30;;;14.80;99.90;;;;;;5053432;28;20198;-68
2021/08/29 06:43:43;;;;;;;0.30;0.30;;;14.70;99.90;;;;;;5053136;28;20190;-66
2021/08/29 06:46:09;;;;;;;0.30;0.30;;;14.70;99.90;;;;;;5052244;28;20200;-68
2021/08/29 06:48:34;;;;;;;0.30;0.30;;;14.80;99.90;;;;;;5054132;28;20215;-67
2021/08/29 06:51:00;;;;;;;0.30;0.30;;;14.80;99.90;;;;;;5053495;28;20635;-68
2021/08/29 06:53:26;;;;;;;0.30;0.30;;;14.70;99.90;;;;;;5052976;28;20170;-69
2021/08/29 06:55:52;;;;;;;0.30;0.30;;;14.90;99.90;;;;;;5054152;28;20312;-69
2021/08/29 06:58:18;;;;;;;0.30;0.30;;;14.90;99.90;;;;;;5053827;28;20435;-67
2021/08/29 07:00:44;;;;;;;0.30;0.30;;;14.90;99.90;;;;;;5053190;28;20327;-66
2021/08/29 07:03:09;;;;;;;0.30;0.30;;;15.10;99.90;;;;;;5052570;28;20632;-68
2021/08/29 07:05:36;;;;;;;0.30;0.30;;;15.20;99.90;;;;;;5053100;28;20439;-67
2021/08/29 07:08:02;;;;;;;0.30;0.30;;;15.30;99.90;;;;;;5053506;28;20401;-68
2021/08/29 07:10:28;;;;;;;0.30;0.30;;;15.30;99.90;;;;;;5052105;28;20456;-67
2021/08/29 07:12:54;;;;;;;0.30;0.30;;;15.40;99.90;;;;;;5053636;28;20471;-68
2021/08/29 07:15:19;;;;;;;0.30;0.30;;;15.40;99.90;;;;;;5053105;28;20444;-67
2021/08/29 07:17:45;;;;;;;0.30;0.30;;;15.50;99.90;;;;;;5052966;28;20178;-68
2021/08/29 07:20:11;;;;;;;0.30;0.30;;;15.60;99.90;;;;;;5053539;28;20180;-67
2021/08/29 07:22:37;;;;;;;0.30;0.30;;;15.70;99.70;;;;;;5052865;28;20217;-67
2021/08/29 07:25:02;;;;;;;0.30;0.30;;;15.80;99.90;;;;;;5052798;28;20428;-67
2021/08/29 07:27:28;;;;;;;0.30;0.30;;;15.90;99.90;;;;;;5050669;28;20183;-67
2021/08/29 07:29:54;;;;;;;0.30;0.30;;;16.00;99.90;;;;;;5053011;28;20249;-67
2021/08/29 07:32:20;;;;;;;0.30;0.30;;;15.90;99.70;;;;;;5052917;28;20223;-67
2021/08/29 07:34:46;;;;;;;0.30;0.30;;;15.70;99.60;;;;;;5052839;28;20443;-68
2021/08/29 07:37:12;;;;;;;0.30;0.30;;;15.80;99.60;;;;;;5052649;28;20409;-66
2021/08/29 07:39:37;;;;;;;0.30;0.30;;;15.90;99.90;;;;;;5051378;28;20171;-67
2021/08/29 07:42:03;;;;;;;0.30;0.30;;;16.00;99.90;;;;;;5056742;28;20172;-67
2021/08/29 07:44:29;;;;;;;0.30;0.30;;;16.00;99.50;;;;;;5056154;28;20190;-68
2021/08/29 07:46:55;;;;;;;0.30;0.30;;;16.00;99.30;;;;;;5056194;28;20445;-66
2021/08/29 07:49:22;;;;;;;0.30;0.30;;;16.00;99.70;;;;;;5056890;28;20176;-68
2021/08/29 07:51:47;;;;;;;0.30;0.30;;;16.10;99.90;;;;;;5056482;28;20693;-68
2021/08/29 07:54:13;;;;;;;0.30;0.30;;;16.10;99.20;;;;;;5056446;28;20440;-67
2021/08/29 07:56:39;;;;;;;0.30;0.30;;;16.10;99.60;;;;;;5056141;28;20217;-67
2021/08/29 07:59:04;;;;;;;0.30;0.30;;;16.10;99.40;;;;;;5056371;28;20170;-68
2021/08/29 08:01:30;;;;;;;0.30;0.30;;;16.10;99.10;;;;;;5056276;28;20266;-67
2021/08/29 08:03:55;;;;;;;0.30;0.30;;;16.20;99.30;;;;;;5056009;28;20198;-70
2021/08/29 08:06:21;;;;;;;0.30;0.30;;;16.20;99.30;;;;;;5055923;28;20176;-66
2021/08/29 08:08:47;;;;;;;0.30;0.30;;;16.30;99.00;;;;;;5056211;28;20174;-65
2021/08/29 08:11:13;;;;;;;0.30;0.30;;;16.40;99.40;;;;;;5056108;28;20201;-69
2021/08/29 08:13:38;;;;;;;0.30;0.30;;;16.60;99.80;;;;;;5056052;28;20174;-68
2021/08/29 08:16:04;;;;;;;0.30;0.30;;;16.70;99.00;;;;;;5055713;28;20175;-68
2021/08/29 08:18:30;;;;;;;0.30;0.30;;;16.80;98.20;;;;;;5055738;28;20178;-69
2021/08/29 08:20:57;;;;;;;0.30;0.30;;;16.70;98.40;;;;;;5056445;28;20403;-68
2021/08/29 08:23:22;;;;;;;0.30;0.30;;;16.60;99.00;;;;;;5055469;28;20162;-66
2021/08/29 08:25:48;;;;;;;0.30;0.30;;;16.70;99.10;;;;;;5054275;28;20457;-68
2021/08/29 08:28:14;;;;;;;0.30;0.30;;;16.70;99.20;;;;;;5054977;28;20177;-68
2021/08/29 08:30:39;;;;;;;0.30;0.30;;;16.70;99.00;;;;;;5055624;28;20177;-68
2021/08/29 08:33:06;;;;;;;0.30;0.30;;;16.60;98.10;;;;;;5055351;28;20689;-68
2021/08/29 08:35:31;;;;;;;0.30;0.30;;;16.50;98.70;;;;;;5055283;28;20189;-67
2021/08/29 08:37:57;;;;;;;0.30;0.30;;;16.50;99.30;;;;;;5055807;28;20740;-68
2021/08/29 08:40:23;;;;;;;0.30;0.30;;;16.30;99.90;;;;;;5055627;28;20177;-67
2021/08/29 08:42:49;;;;;;;0.30;0.30;;;16.40;99.90;;;;;;5055368;28;20499;-68
2021/08/29 08:45:15;;;;;;;0.30;0.30;;;16.50;99.90;;;;;;5055170;28;20559;-67
2021/08/29 08:47:44;;;;;;;0.30;0.30;;;16.60;99.90;;;;;;5055228;28;20423;-68
2021/08/29 08:50:12;;;;;;;0.30;0.30;;;16.60;99.30;;;;;;5055320;28;20542;-76
2021/08/29 08:52:39;;;;;;;0.30;0.30;;;17.00;99.90;;;;;;5055210;28;20834;-71
2021/08/29 08:55:06;;;;;;;0.30;0.30;;;17.10;98.90;;;;;;5055302;28;20920;-65
2021/08/29 08:57:32;;;;;;;0.30;0.30;;;17.30;98.80;;;;;;5054969;28;20507;-70
2021/08/29 08:59:58;;;;;;;0.30;0.30;;;17.00;99.00;;;;;;5055048;28;20420;-71
2021/08/29 09:02:24;;;;;;;0.30;0.30;;;16.90;99.60;;;;;;5055252;28;20178;-69
2021/08/29 09:04:51;;;;;;;0.30;0.30;;;17.10;99.50;;;;;;5054965;28;20208;-68
2021/08/29 09:07:18;;;;;;;0.30;0.30;;;17.20;99.20;;;;;;5054888;28;20506;-69
2021/08/29 09:09:44;;;;;;;0.30;0.30;;;17.40;98.90;;;;;;5054715;28;20424;-70
2021/08/29 09:12:10;;;;;;;0.30;0.30;;;17.40;98.60;;;;;;5055437;28;20440;-71
2021/08/29 09:14:45;;;;;;;0.30;0.30;;;17.30;98.60;;;;;;5054833;28;20459;-69
2021/08/29 09:17:24;;;;;;;0.30;0.30;;;17.40;98.30;;;;;;5054213;28;20201;-69
2021/08/29 09:19:50;;;;;;;0.30;0.30;;;17.50;97.80;;;;;;5053585;28;20495;-71
2021/08/29 09:22:25;;;;;;;0.30;0.30;;;17.60;98.80;;;;;;5054841;28;20432;-68
2021/08/29 09:24:51;;;;;;;0.30;0.30;;;17.70;98.40;;;;;;5054729;28;20432;-69
2021/08/29 09:27:21;;;;;;;0.30;0.30;;;17.80;97.90;;;;;;5054441;28;20409;-69
2021/08/29 09:29:48;;;;;;;0.30;0.30;;;17.80;97.40;;;;;;5054574;28;20409;-70
2021/08/29 09:32:22;;;;;;;0.30;0.30;;;17.70;97.60;;;;;;5054521;28;20863;-71
2021/08/29 09:34:59;;;;;;;0.30;0.30;;;17.70;97.70;;;;;;5054533;28;20439;-70
2021/08/29 09:37:25;;;;;;;0.30;0.30;;;17.70;98.00;;;;;;5054184;28;20415;-69
2021/08/29 09:39:51;;;;;;;0.30;0.30;;;17.60;98.00;;;;;;5054484;28;20400;-70
2021/08/29 09:42:16;;;;;;;0.30;0.30;;;17.50;98.00;;;;;;5054406;28;20178;-68
2021/08/29 09:44:42;;;;;;;0.30;0.30;;;17.60;98.70;;;;;;5054135;28;20238;-71
2021/08/29 09:47:11;;;;;;;0.30;0.30;;;17.60;98.50;;;;;;5054079;28;20563;-69
2021/08/29 09:49:37;;;;;;;0.30;0.30;;;17.70;98.90;;;;;;5054334;28;20241;-71
2021/08/29 09:52:07;;;;;;;0.30;0.30;;;17.80;98.40;;;;;;5054067;28;20815;-69
2021/08/29 09:54:44;;;;;;;0.30;0.30;;;17.80;97.90;;;;;;5053933;28;20485;-68
2021/08/29 09:57:12;;;;;;;0.30;0.30;;;17.70;97.90;;;;;;5053480;28;20541;-71
2021/08/29 09:59:45;;;;;;;0.30;0.30;;;17.60;97.40;;;;;;5054612;28;20863;-67
2021/08/29 10:02:22;;;;;;;0.30;0.30;;;17.50;97.30;;;;;;5054427;28;20886;-69
2021/08/29 10:05:08;;;;;;;0.30;0.30;;;17.60;98.10;;;;;;5054075;28;20431;-69
2021/08/29 10:07:35;;;;;;;0.30;0.30;;;17.80;98.60;;;;;;5054078;28;20412;-68
2021/08/29 10:10:20;;;;;;;0.30;0.30;;;18.00;98.00;;;;;;5054339;28;20405;-70
2021/08/29 10:12:47;;;;;;;0.30;0.30;;;18.10;97.20;;;;;;5052117;28;21024;-69
2021/08/29 10:15:16;;;;;;;0.30;0.30;;;18.20;97.70;;;;;;5053605;28;20514;-69
2021/08/29 10:17:43;;;;;;;0.30;0.30;;;18.40;97.50;;;;;;5053050;28;20499;-68
2021/08/29 10:20:10;;;;;;;0.30;0.30;;;18.70;97.30;;;;;;5053737;28;20721;-67
2021/08/29 10:22:38;;;;;;;0.30;0.30;;;18.80;96.90;;;;;;5053477;28;20470;-70
2021/08/29 10:25:04;;;;;;;0.30;0.30;;;18.80;96.90;;;;;;5053028;28;20432;-67
2021/08/29 10:27:32;;;;;;;0.30;0.30;;;18.90;96.90;;;;;;5053380;28;20429;-68
2021/08/29 10:30:02;;;;;;;0.30;0.30;;;18.80;96.20;;;;;;5053478;28;20751;-68
2021/08/29 10:32:35;;;;;;;0.30;0.30;;;18.50;95.40;;;;;;5053361;28;20460;-67
2021/08/29 10:35:10;;;;;;;0.30;0.30;;;17.80;97.20;;;;;;5053300;28;20428;-67
2021/08/29 10:37:37;;;;;;;0.30;0.30;;;17.70;97.80;;;;;;5053012;28;20392;-68
2021/08/29 10:40:07;;;;;;;0.30;0.30;;;17.70;96.30;;;;;;5053244;28;20406;-68
2021/08/29 10:42:39;;;;;;;0.30;0.30;;;17.90;97.10;;;;;;5053262;28;20421;-69
2021/08/29 10:45:05;;;;;;;0.30;0.30;;;18.10;97.70;;;;;;5053081;28;20436;-70
2021/08/29 10:47:32;;;;;;;0.30;0.30;;;18.10;98.10;;;;;;5052766;28;20532;-68
2021/08/29 10:50:01;;;;;;;0.30;0.30;;;18.20;98.00;;;;;;5053039;28;20754;-69
2021/08/29 10:52:35;;;;;;;0.40;0.40;;;18.00;97.30;;;;;;5053059;28;20458;-70
2021/08/29 10:55:07;;;;;;;0.30;0.30;;;17.90;97.90;;;;;;5053236;28;20428;-69
2021/08/29 10:57:41;;;;;;;0.30;0.30;;;17.90;97.90;;;;;;5052982;28;20402;-69
2021/08/29 11:00:25;;;;;;;0.30;0.30;;;17.70;96.60;;;;;;5053286;28;20416;-67
2021/08/29 11:02:52;;;;;;;0.30;0.30;;;17.70;97.80;;;;;;5053330;28;20499;-67
2021/08/29 11:05:40;;;;;;;0.40;0.40;;;17.90;97.00;;;;;;5053007;28;20437;-69
2021/08/29 11:08:28;;;;;;;0.30;0.30;;;18.10;98.10;;;;;;5052953;28;20456;-67
2021/08/29 11:10:55;;;;;;;0.30;0.30;;;18.00;98.10;;;;;;5053108;28;20432;-68
2021/08/29 11:13:31;;;;;;;0.30;0.30;;;18.00;97.40;;;;;;5052960;28;20404;-67
2021/08/29 11:16:09;;;;;;;0.30;0.30;;;17.80;97.50;;;;;;5056876;28;20889;-68
2021/08/29 11:19:00;;;;;;;0.37;0.37;;;18.00;97.60;;;;;;5056876;28;20462;-67
2021/08/29 11:21:34;;;;;;;0.30;0.30;;;18.30;97.50;;;;;;5057087;28;20757;-69
2021/08/29 11:24:04;;;;;;;0.30;0.30;;;18.20;97.20;;;;;;5056798;28;20924;-67
2021/08/29 11:26:30;;;;;;;0.30;0.30;;;18.30;96.80;;;;;;5056733;28;20882;-69
2021/08/29 11:28:57;;;;;;;0.30;0.30;;;18.10;96.80;;;;;;5056938;28;20488;-70
2021/08/29 11:31:54;;;;;;;0.30;0.30;;;18.10;97.20;;;;;;5056875;28;20526;-67
2021/08/29 11:34:20;;;;;;;0.30;0.30;;;18.10;97.20;;;;;;5056981;28;20432;-68
2021/08/29 11:36:46;;;;;;;0.30;0.30;;;18.20;97.60;;;;;;5055257;28;20747;-68
2021/08/29 11:39:58;;;;;;;0.30;0.30;;;18.30;96.70;;;;;;5056746;28;20509;-68
2021/08/29 11:42:23;;;;;;;0.40;0.40;;;18.50;97.60;;;;;;5015174;28;20473;-69
2021/08/29 11:44:49;;;;;;;0.30;0.30;;;18.90;95.30;;;;;;5050861;28;20468;-69
2021/08/29 11:47:15;;;;;;;0.30;0.30;;;19.10;96.30;;;;;;5056433;28;20202;-69
2021/08/29 11:49:41;;;;;;;0.30;0.30;;;19.10;95.60;;;;;;5056628;28;20461;-67
2021/08/29 11:52:07;;;;;;;0.30;0.30;;;18.90;96.20;;;;;;5056433;28;20240;-69
2021/08/29 11:54:33;;;;;;;0.30;0.30;;;18.80;96.00;;;;;;5056328;28;20198;-68
2021/08/29 11:56:59;;;;;;;0.30;0.30;;;18.80;97.40;;;;;;5056139;28;20204;-70
2021/08/29 11:59:33;;;;;;;0.30;0.30;;;18.80;96.60;;;;;;5056244;28;20884;-72
2021/08/29 12:02:00;;;;;;;0.30;0.30;;;19.00;96.40;;;;;;5056414;28;20400;-69
2021/08/29 12:04:26;;;;;;;0.30;0.30;;;19.00;96.50;;;;;;5056081;28;20456;-70
2021/08/29 12:07:05;;;;;;;0.30;0.30;;;19.00;95.80;;;;;;5055999;28;20435;-69
2021/08/29 12:09:41;;;;;;;0.30;0.30;;;19.10;96.10;;;;;;5056246;28;20408;-71
2021/08/29 12:12:14;;;;;;;0.30;0.30;;;19.10;96.50;;;;;;5056118;28;20535;-69
2021/08/29 12:14:40;;;;;;;0.30;0.30;;;18.90;95.70;;;;;;5056142;28;20519;-70
2021/08/29 12:17:10;;;;;;;0.30;0.30;;;18.60;96.40;;;;;;5055737;28;20422;-72
2021/08/29 12:19:37;;;;;;;0.30;0.30;;;18.40;96.70;;;;;;5055897;28;20406;-70
2021/08/29 12:22:12;;;;;;;0.30;0.30;;;18.20;95.40;;;;;;5055993;28;20405;-70
2021/08/29 12:24:40;;;;;;;0.30;0.30;;;18.20;96.60;;;;;;5055886;28;20433;-67
2021/08/29 12:27:16;;;;;;;0.30;0.30;;;18.00;96.90;;;;;;5054938;28;20458;-69
2021/08/29 12:29:57;;;;;;;0.30;0.30;;;17.80;96.70;;;;;;5055906;28;20416;-71
2021/08/29 12:32:31;;;;;;;0.40;0.40;;;17.80;97.50;;;;;;5055434;28;20448;-70
2021/08/29 12:35:00;;;;;;;0.30;0.30;;;17.80;97.90;;;;;;5055781;28;20435;-72
2021/08/29 12:37:28;;;;;;;0.30;0.30;;;17.80;97.40;;;;;;5055342;28;20405;-69
2021/08/29 12:40:10;;;;;;;0.30;0.30;;;17.40;96.80;;;;;;5056048;28;20500;-67
2021/08/29 12:42:41;;;;;;;0.30;0.30;;;17.30;97.20;;;;;;5055994;28;20867;-69
2021/08/29 12:45:10;;;;;;;0.30;0.30;;;17.10;97.80;;;;;;5055157;28;20519;-70
2021/08/29 12:47:39;;;;;;;0.40;0.40;;;16.80;97.40;;;;;;5055129;28;20405;-69
2021/08/29 12:50:07;;;;;;;0.30;0.30;;;16.70;97.40;;;;;;5055605;28;20416;-71
2021/08/29 12:52:39;;;;;;;0.30;0.30;;;16.90;98.60;;;;;;5055614;28;20498;-70
2021/08/29 12:55:24;;;;;;;0.30;0.30;;;17.10;97.90;;;;;;5055207;28;20550;-71
2021/08/29 12:57:56;;;;;;;0.30;0.30;;;17.30;98.50;;;;;;5054769;28;20405;-69
2021/08/29 13:00:34;;;;;;;0.30;0.30;;;17.50;97.20;;;;;;5055136;28;20408;-70
2021/08/29 13:03:01;;;;;;;0.30;0.30;;;17.50;98.00;;;;;;5053444;28;20433;-71
2021/08/29 13:05:37;;;;;;;0.30;0.30;;;17.40;98.10;;;;;;5054139;28;20850;-71